Time;durP1;ratioP1;P1;durP2;ratioP2;P2;SDS_P1;SDS_P2;PMS_P1;PMS_P2;Temp;Humidity;BMP_temperature;BMP_pressure;BME280_temperature;BME280_humidity;BME280_pressure;Samples;Min_cycle;Max_cycle;Signal;HPM_P1;HPM_P2
2023/05/29 00:02:02;;;;;;;15.25;3.65;;;;;;;14.91;46.75;100519.75;5052891;28;20454;-76
2023/05/29 00:04:29;;;;;;;13.88;3.70;;;;;;;14.87;46.86;100528.84;5052962;28;20049;-76
2023/05/29 00:06:55;;;;;;;10.95;3.00;;;;;;;14.82;47.11;100520.34;5052749;28;20401;-76
2023/05/29 00:09:22;;;;;;;15.80;3.25;;;;;;;14.80;47.15;100528.38;5052934;28;20060;-76
2023/05/29 00:11:52;;;;;;;13.50;2.83;;;;;;;14.78;47.42;100534.72;5052027;28;20045;-76
2023/05/29 00:14:20;;;;;;;14.13;3.50;;;;;;;14.76;47.34;100526.00;5070817;28;20068;-76
2023/05/29 00:16:46;;;;;;;17.40;3.63;;;;;;;14.71;47.25;100524.50;5070404;28;20048;-76
2023/05/29 00:19:13;;;;;;;14.45;3.05;;;;;;;14.68;47.39;100527.31;5070668;28;20048;-76
2023/05/29 00:21:40;;;;;;;15.68;3.03;;;;;;;14.64;47.45;100523.16;5052412;28;20125;-77
2023/05/29 00:24:07;;;;;;;13.95;3.65;;;;;;;14.61;47.51;100522.50;5052819;28;20456;-76
2023/05/29 00:26:34;;;;;;;17.00;2.83;;;;;;;14.57;47.62;100522.69;5070084;28;20056;-77
2023/05/29 00:29:00;;;;;;;11.52;3.13;;;;;;;14.54;47.84;100527.34;5070161;28;20044;-77
2023/05/29 00:31:28;;;;;;;14.60;3.42;;;;;;;14.51;47.66;100530.16;5070311;28;20045;-77
2023/05/29 00:33:54;;;;;;;12.18;2.83;;;;;;;14.49;47.85;100524.94;5052646;28;20060;-76
2023/05/29 00:36:21;;;;;;;14.10;2.83;;;;;;;14.49;48.11;100524.94;5052677;28;20059;-76
2023/05/29 00:38:48;;;;;;;15.52;3.00;;;;;;;14.49;47.97;100537.34;5070275;28;20060;-77
2023/05/29 00:41:15;;;;;;;12.68;3.25;;;;;;;14.48;48.00;100535.63;5052182;28;20052;-77
2023/05/29 00:43:43;;;;;;;19.08;2.90;;;;;;;14.45;48.23;100534.03;5052715;28;20059;-76
2023/05/29 00:46:12;;;;;;;17.38;3.45;;;;;;;14.42;48.17;100543.03;5052142;28;20489;-77
2023/05/29 00:48:41;;;;;;;13.77;2.75;;;;;;;14.41;48.26;100543.97;5052315;28;20090;-77
2023/05/29 00:51:09;;;;;;;12.57;2.97;;;;;;;14.37;48.42;100547.75;5069776;28;20118;-77
2023/05/29 00:53:36;;;;;;;16.75;3.50;;;;;;;14.35;48.23;100546.97;5052560;28;20052;-76
2023/05/29 00:56:04;;;;;;;11.20;3.10;;;;;;;14.33;48.21;100551.53;5069992;28;20053;-76
2023/05/29 00:58:31;;;;;;;15.82;2.80;;;;;;;14.30;48.10;100541.97;5069978;28;20524;-76
2023/05/29 01:00:58;;;;;;;12.07;2.95;;;;;;;14.28;48.55;100553.59;5069420;28;20671;-76
2023/05/29 01:03:25;;;;;;;14.25;3.10;;;;;;;14.28;48.58;100550.97;5069799;28;20071;-77
2023/05/29 01:05:52;;;;;;;10.45;2.90;;;;;;;14.26;48.74;100555.47;5052410;28;20056;-76
2023/05/29 01:08:19;;;;;;;9.57;2.80;;;;;;;14.24;48.89;100552.09;5069969;28;20463;-77
2023/05/29 01:10:47;;;;;;;12.63;3.03;;;;;;;14.22;48.76;100552.16;5069739;28;20044;-76
2023/05/29 01:13:27;;;;;;;17.85;3.30;;;;;;;14.16;49.80;100553.38;5052094;28;20438;-76
2023/05/29 01:16:08;;;;;;;16.65;2.90;;;;;;;14.13;49.74;100552.72;5052067;28;20044;-77
2023/05/29 01:18:50;;;;;;;11.57;2.97;;;;;;;14.09;49.70;100549.38;5069904;28;20056;-77
2023/05/29 01:21:35;;;;;;;14.40;2.60;;;;;;;14.05;49.88;100546.06;5051911;28;20056;-77
2023/05/29 01:24:25;;;;;;;11.70;2.67;;;;;;;14.01;49.80;100549.84;5072789;28;20063;-76
2023/05/29 01:27:00;;;;;;;10.10;3.25;;;;;;;13.99;50.19;100554.41;5073366;28;20182;-76
2023/05/29 01:29:31;;;;;;;10.38;2.63;;;;;;;13.97;49.48;100547.50;5055820;28;20059;-77
2023/05/29 01:31:59;;;;;;;10.07;2.88;;;;;;;13.94;49.19;100549.34;5055202;28;20048;-76
2023/05/29 01:34:25;;;;;;;14.38;3.65;;;;;;;13.92;49.26;100547.75;5073279;28;20163;-76
2023/05/29 01:36:52;;;;;;;12.27;2.97;;;;;;;13.88;49.16;100549.72;5055367;28;20668;-78
2023/05/29 01:39:21;;;;;;;14.77;3.22;;;;;;;13.86;49.52;100548.94;5055579;28;20056;-77
2023/05/29 01:41:48;;;;;;;12.40;2.83;;;;;;;13.83;49.49;100551.75;5055234;28;20127;-77
2023/05/29 01:44:16;;;;;;;18.95;3.28;;;;;;;13.83;49.89;100562.34;5055344;28;20052;-77
2023/05/29 01:46:45;;;;;;;12.25;3.08;;;;;;;13.80;49.66;100563.38;5055027;28;20052;-76
2023/05/29 01:49:12;;;;;;;10.52;2.72;;;;;;;13.79;49.94;100563.47;5055111;28;20082;-77
2023/05/29 01:51:42;;;;;;;11.63;2.45;;;;;;;13.76;50.92;100564.50;5054605;28;20066;-77
2023/05/29 01:54:09;;;;;;;10.90;2.95;;;;;;;13.77;49.90;100571.53;5072986;28;20044;-77
2023/05/29 01:56:37;;;;;;;16.35;3.20;;;;;;;13.76;50.10;100576.91;5072941;28;20391;-76
2023/05/29 01:59:04;;;;;;;13.98;2.70;;;;;;;13.76;49.95;100575.06;5072937;28;20492;-77
2023/05/29 02:01:31;;;;;;;16.63;3.20;;;;;;;13.74;50.28;100569.03;5054917;28;20044;-77
2023/05/29 02:03:58;;;;;;;11.23;2.85;;;;;;;13.72;49.96;100578.84;5072921;28;20049;-76
2023/05/29 02:06:24;;;;;;;14.98;2.80;;;;;;;13.70;50.13;100578.09;5054981;28;20110;-76
2023/05/29 02:08:51;;;;;;;14.52;2.70;;;;;;;13.69;50.37;100584.34;5054811;28;20050;-76
2023/05/29 02:11:18;;;;;;;9.15;2.50;;;;;;;13.67;50.40;100584.41;5072662;28;20315;-77
2023/05/29 02:13:44;;;;;;;11.63;2.90;;;;;;;13.67;50.21;100584.41;5054904;28;20108;-77
2023/05/29 02:16:11;;;;;;;16.23;3.35;;;;;;;13.66;50.21;100584.50;5054671;28;20151;-76
2023/05/29 02:18:37;;;;;;;11.90;3.03;;;;;;;13.64;50.39;100591.69;5072583;28;20126;-76
2023/05/29 02:21:04;;;;;;;15.07;2.92;;;;;;;13.62;50.27;100589.13;5054877;28;20053;-77
2023/05/29 02:23:31;;;;;;;15.98;3.70;;;;;;;13.61;50.54;100597.13;5054290;28;20117;-76
2023/05/29 02:25:57;;;;;;;17.63;3.40;;;;;;;13.60;50.70;100593.63;5071750;28;20516;-77
2023/05/29 02:28:24;;;;;;;14.50;3.00;;;;;;;13.58;50.45;100590.22;5054378;28;20448;-76
2023/05/29 02:30:51;;;;;;;13.43;2.53;;;;;;;13.57;50.53;100583.22;5072310;28;20409;-77
2023/05/29 02:33:17;;;;;;;15.20;3.28;;;;;;;13.54;50.54;100576.31;5072238;28;20136;-75
2023/05/29 02:35:44;;;;;;;11.00;2.80;;;;;;;13.53;50.61;100579.06;5071577;28;20123;-76
2023/05/29 02:38:10;;;;;;;12.70;2.75;;;;;;;13.51;50.47;100576.50;5054255;28;20048;-77
2023/05/29 02:40:37;;;;;;;11.85;2.97;;;;;;;13.50;50.75;100569.47;5054397;28;20053;-77
2023/05/29 02:43:05;;;;;;;19.35;3.53;;;;;;;13.48;50.95;100566.09;5054192;28;20056;-76
2023/05/29 02:45:31;;;;;;;12.13;2.55;;;;;;;13.47;50.65;100564.34;5072055;28;20056;-77
2023/05/29 02:47:59;;;;;;;12.98;2.90;;;;;;;13.46;50.38;100572.38;5054032;28;20045;-76
2023/05/29 02:50:26;;;;;;;8.95;2.60;;;;;;;13.43;50.54;100566.28;5051206;22;20548;-80
2023/05/29 02:52:52;;;;;;;15.32;3.40;;;;;;;13.40;50.59;100568.28;5050681;28;20053;-80
2023/05/29 02:55:19;;;;;;;13.35;2.88;;;;;;;13.37;50.50;100579.00;5052210;28;20064;-80
2023/05/29 02:57:48;;;;;;;15.05;3.22;;;;;;;13.31;50.82;100580.22;5050537;28;20045;-80
2023/05/29 03:00:15;;;;;;;14.60;3.15;;;;;;;13.26;50.82;100592.81;5050078;28;20053;-79
2023/05/29 03:02:42;;;;;;;14.48;3.05;;;;;;;13.22;51.03;100593.94;5051995;28;20479;-79
2023/05/29 03:05:09;;;;;;;10.45;2.80;;;;;;;13.20;51.12;100598.47;5051827;28;20049;-80
2023/05/29 03:07:36;;;;;;;15.20;2.65;;;;;;;13.16;51.12;100601.25;5051941;28;20053;-79
2023/05/29 03:10:04;;;;;;;11.52;2.70;;;;;;;13.13;51.29;100604.06;5051626;28;20638;-79
2023/05/29 03:12:31;;;;;;;13.30;2.85;;;;;;;13.11;51.20;100602.44;5051289;28;20065;-80
2023/05/29 03:14:58;;;;;;;15.45;2.88;;;;;;;13.10;51.25;100604.25;5051422;28;20063;-80
2023/05/29 03:17:25;;;;;;;8.13;2.47;;;;;;;13.07;51.47;100598.25;5051390;28;20075;-80
2023/05/29 03:19:52;;;;;;;18.92;3.40;;;;;;;13.06;51.42;100597.41;5051742;28;20437;-80
2023/05/29 03:22:19;;;;;;;14.45;3.40;;;;;;;13.04;51.38;100599.28;5051227;28;20194;-80
2023/05/29 03:24:45;;;;;;;10.40;2.47;;;;;;;13.01;51.34;100604.75;5051400;28;20057;-80
2023/05/29 03:27:12;;;;;;;14.90;2.95;;;;;;;12.99;51.40;100598.69;5051158;28;20049;-80
2023/05/29 03:29:39;;;;;;;11.32;2.60;;;;;;;12.96;51.45;100596.19;5051272;28;20509;-80
2023/05/29 03:32:06;;;;;;;13.57;2.42;;;;;;;12.93;51.61;100591.94;5051175;28;20472;-80
2023/05/29 03:34:32;;;;;;;17.42;2.70;;;;;;;12.90;51.69;100595.59;5051171;28;20053;-80
2023/05/29 03:36:59;;;;;;;12.93;3.15;;;;;;;12.90;51.81;100592.94;5050858;28;20048;-80
2023/05/29 03:39:26;;;;;;;11.85;2.75;;;;;;;12.89;51.80;100588.59;5051182;28;20045;-80
2023/05/29 03:41:52;;;;;;;16.17;3.50;;;;;;;12.88;51.88;100591.31;5050542;28;20498;-80
2023/05/29 03:44:19;;;;;;;14.52;3.28;;;;;;;12.86;51.93;100591.41;5051146;28;20056;-80
2023/05/29 03:46:45;;;;;;;13.90;3.50;;;;;;;12.87;52.17;100586.97;5049929;28;20106;-80
2023/05/29 03:49:12;;;;;;;11.55;2.90;;;;;;;12.87;52.05;100598.38;5050864;28;20136;-79
2023/05/29 03:51:38;;;;;;;14.18;3.15;;;;;;;12.86;52.10;100591.41;5050792;28;20084;-79
2023/05/29 03:54:05;;;;;;;12.32;2.67;;;;;;;12.86;52.08;100591.41;5050172;28;20075;-80
2023/05/29 03:56:31;;;;;;;10.07;2.72;;;;;;;12.84;52.15;100593.28;5050762;28;20056;-80
2023/05/29 03:58:58;;;;;;;13.88;3.10;;;;;;;12.84;52.12;100595.06;5050920;28;20102;-80
2023/05/29 04:01:25;;;;;;;16.08;3.00;;;;;;;12.83;52.34;100594.22;5051025;28;20136;-80
2023/05/29 04:03:53;;;;;;;20.52;3.33;;;;;;;12.82;52.32;100603.06;5050513;28;20076;-80
2023/05/29 04:06:20;;;;;;;9.60;2.45;;;;;;;12.84;52.30;100611.78;5050479;28;20076;-80
2023/05/29 04:08:46;;;;;;;17.98;3.05;;;;;;;12.84;52.25;100611.78;5050495;28;20076;-79
2023/05/29 04:11:14;;;;;;;13.20;2.45;;;;;;;12.84;52.31;100608.28;5050662;28;20091;-79
2023/05/29 04:13:40;;;;;;;11.55;2.72;;;;;;;12.82;52.44;100613.63;5050771;28;20049;-80
2023/05/29 04:16:10;;;;;;;15.70;3.58;;;;;;;12.81;52.35;100611.94;5050741;28;20052;-80
2023/05/29 04:18:37;;;;;;;15.45;3.80;;;;;;;12.79;52.42;100608.53;5050495;28;20049;-80
2023/05/29 04:21:03;;;;;;;15.05;2.80;;;;;;;12.79;52.50;100605.03;5050522;28;20049;-80
2023/05/29 04:23:30;;;;;;;13.30;3.17;;;;;;;12.77;52.41;100602.47;5050143;28;20041;-80
2023/05/29 04:25:57;;;;;;;16.52;3.75;;;;;;;12.77;52.60;100610.38;5050540;28;20045;-80
2023/05/29 04:28:24;;;;;;;11.68;2.83;;;;;;;12.79;52.67;100610.31;5050573;28;20060;-80
2023/05/29 04:30:51;;;;;;;13.32;3.13;;;;;;;12.79;52.60;100605.88;5050474;28;20086;-80
2023/05/29 04:33:20;;;;;;;14.77;2.90;;;;;;;12.79;52.94;100608.53;5050415;28;20049;-80
2023/05/29 04:35:48;;;;;;;14.90;3.08;;;;;;;12.81;52.79;100621.63;5049700;28;20053;-80
2023/05/29 04:38:15;;;;;;;15.25;2.90;;;;;;;12.83;52.79;100622.44;5050598;28;20080;-80
2023/05/29 04:40:44;;;;;;;13.70;3.33;;;;;;;12.86;52.99;100630.19;5049268;28;20103;-80
2023/05/29 04:43:10;;;;;;;16.67;3.03;;;;;;;12.88;52.69;100631.81;5050684;28;20417;-79
2023/05/29 04:45:37;;;;;;;15.98;3.53;;;;;;;12.92;52.88;100640.44;5050053;28;20045;-80
2023/05/29 04:48:04;;;;;;;12.95;3.10;;;;;;;12.93;52.88;100636.84;5050041;28;20056;-80
2023/05/29 04:50:31;;;;;;;11.30;3.05;;;;;;;12.97;52.74;100640.19;5049934;28;20087;-80
2023/05/29 04:52:58;;;;;;;14.57;2.75;;;;;;;12.98;52.63;100642.75;5050320;28;20064;-79
2023/05/29 04:55:24;;;;;;;17.70;3.60;;;;;;;13.00;53.00;100640.03;5048714;28;20045;-79
2023/05/29 04:57:51;;;;;;;12.00;2.85;;;;;;;13.01;52.83;100639.09;5051797;28;20049;-80
2023/05/29 05:00:18;;;;;;;11.57;2.35;;;;;;;13.02;52.75;100646.09;5054243;28;20051;-80
2023/05/29 05:02:45;;;;;;;14.73;2.75;;;;;;;13.04;52.87;100649.50;5053996;28;20456;-79
2023/05/29 05:05:12;;;;;;;17.10;2.97;;;;;;;13.06;52.92;100645.00;5053696;28;20110;-80
2023/05/29 05:07:39;;;;;;;14.35;3.53;;;;;;;13.08;52.89;100645.75;5053878;28;20049;-80
2023/05/29 05:10:07;;;;;;;16.25;2.60;;;;;;;13.11;53.03;100653.53;5054290;28;20060;-80
2023/05/29 05:12:33;;;;;;;10.23;2.45;;;;;;;13.14;53.17;100647.22;5053823;28;20135;-80
2023/05/29 05:15:00;;;;;;;12.98;3.28;;;;;;;13.18;52.96;100632.03;5053404;28;20571;-80
2023/05/29 05:17:27;;;;;;;11.27;2.78;;;;;;;13.21;52.88;100648.59;5053214;28;20501;-80
2023/05/29 05:19:53;;;;;;;13.43;3.05;;;;;;;13.24;52.82;100643.13;5053246;28;20060;-80
2023/05/29 05:22:20;;;;;;;12.32;2.50;;;;;;;13.27;52.79;100637.69;5052938;28;20106;-80
2023/05/29 05:24:47;;;;;;;19.52;3.20;;;;;;;13.29;52.70;100633.19;5053587;28;20506;-80
2023/05/29 05:27:16;;;;;;;11.30;2.78;;;;;;;13.33;52.71;100625.94;5052270;28;20573;-79
2023/05/29 05:29:43;;;;;;;14.95;3.22;;;;;;;13.36;52.72;100636.34;5053877;28;20045;-80
2023/05/29 05:32:11;;;;;;;16.38;2.70;;;;;;;13.40;52.80;100637.03;5053457;28;20130;-84
2023/05/29 05:34:38;;;;;;;16.25;3.05;;;;;;;13.45;52.60;100647.38;5053197;28;20482;-79
2023/05/29 05:37:16;;;;;;;13.77;2.85;;;;;;;13.48;52.45;100644.56;5053611;28;20132;-78
2023/05/29 05:39:43;;;;;;;18.80;2.63;;;;;;;13.51;52.40;100644.41;5053458;28;20100;-77
2023/05/29 05:42:09;;;;;;;12.50;2.80;;;;;;;13.55;52.46;100651.22;5051994;28;20525;-78
2023/05/29 05:44:36;;;;;;;17.90;3.30;;;;;;;13.57;52.32;100651.97;5051932;28;20552;-78
2023/05/29 05:47:03;;;;;;;15.40;3.00;;;;;;;13.62;52.03;100664.97;5053019;28;20049;-78
2023/05/29 05:49:30;;;;;;;13.40;2.95;;;;;;;13.65;52.06;100657.72;5052339;28;20052;-78
2023/05/29 05:51:57;;;;;;;10.15;2.47;;;;;;;13.67;51.93;100663.78;5051782;28;20049;-77
2023/05/29 05:54:24;;;;;;;14.88;3.25;;;;;;;13.70;52.06;100646.00;5053053;28;20057;-78
2023/05/29 05:56:50;;;;;;;12.18;3.15;;;;;;;13.72;52.07;100641.50;5051550;28;20132;-77
2023/05/29 05:59:17;;;;;;;9.48;2.47;;;;;;;13.74;51.87;100653.72;5053017;28;20041;-78
2023/05/29 06:01:44;;;;;;;14.38;3.33;;;;;;;13.75;51.91;100646.63;5052176;28;20753;-78
2023/05/29 06:04:11;;;;;;;14.85;2.97;;;;;;;13.77;51.71;100656.19;5053146;28;20072;-77
2023/05/29 06:06:43;;;;;;;10.63;3.05;;;;;;;13.79;51.38;100656.09;5052259;28;20055;-78
2023/05/29 06:09:11;;;;;;;18.70;3.60;;;;;;;13.81;51.77;100652.44;5051822;28;20053;-78
2023/05/29 06:11:38;;;;;;;15.20;3.58;;;;;;;13.86;51.88;100657.44;5052731;28;20053;-78
2023/05/29 06:14:05;;;;;;;11.38;2.80;;;;;;;13.90;52.05;100672.22;5051211;28;20052;-77
2023/05/29 06:16:32;;;;;;;12.48;2.70;;;;;;;13.97;51.86;100670.06;5051415;28;20049;-78
2023/05/29 06:18:59;;;;;;;17.48;4.25;;;;;;;14.01;51.63;100668.97;5052037;28;20052;-78
2023/05/29 06:21:25;;;;;;;17.92;3.58;;;;;;;14.06;51.54;100671.38;5052457;28;20049;-77
2023/05/29 06:23:52;;;;;;;22.88;4.00;;;;;;;14.10;51.52;100672.91;5052574;28;20041;-78
2023/05/29 06:26:18;;;;;;;17.73;3.35;;;;;;;14.13;51.39;100679.81;5051112;28;20130;-78
2023/05/29 06:28:45;;;;;;;15.45;3.75;;;;;;;14.17;51.45;100679.53;5052110;28;20049;-77
2023/05/29 06:31:12;;;;;;;12.32;3.70;;;;;;;14.22;51.46;100683.69;5052333;28;20055;-78
2023/05/29 06:33:38;;;;;;;11.13;2.72;;;;;;;14.27;51.48;100682.50;5052541;28;20110;-78
2023/05/29 06:36:06;;;;;;;11.50;2.60;;;;;;;14.32;51.48;100682.25;5050665;28;20053;-78
2023/05/29 06:38:33;;;;;;;19.77;3.30;;;;;;;14.38;51.31;100691.59;5051888;28;20049;-78
2023/05/29 06:41:00;;;;;;;15.25;3.03;;;;;;;14.43;51.49;100697.53;5052058;28;20053;-78
2023/05/29 06:43:28;;;;;;;12.57;2.75;;;;;;;14.48;51.20;100692.81;5052288;28;20048;-78
2023/05/29 06:45:55;;;;;;;17.58;3.30;;;;;;;14.54;51.27;100707.50;5051001;28;20063;-79
2023/05/29 06:48:22;;;;;;;12.93;3.05;;;;;;;14.59;50.98;100695.66;5051962;28;20044;-78
2023/05/29 06:50:51;;;;;;;13.73;2.92;;;;;;;14.63;50.98;100691.03;5050716;28;20053;-77
2023/05/29 06:53:18;;;;;;;12.38;3.08;;;;;;;14.69;51.01;100692.47;5051411;28;20695;-78
2023/05/29 06:55:44;;;;;;;16.05;3.10;;;;;;;14.73;51.03;100689.53;5051098;28;20119;-78
2023/05/29 06:58:11;;;;;;;14.82;2.85;;;;;;;14.80;50.99;100691.88;5051094;28;20095;-78
2023/05/29 07:00:38;;;;;;;11.32;2.53;;;;;;;14.85;50.94;100697.75;5051146;28;20045;-78
2023/05/29 07:03:05;;;;;;;12.50;2.83;;;;;;;14.90;50.79;100693.00;5050347;28;20057;-78
2023/05/29 07:05:31;;;;;;;16.13;3.28;;;;;;;14.95;50.54;100692.75;5051742;28;20148;-78
2023/05/29 07:07:58;;;;;;;9.40;2.70;;;;;;;15.01;50.43;100699.47;5051255;28;20489;-78
2023/05/29 07:10:25;;;;;;;9.73;2.80;;;;;;;15.06;50.34;100702.72;5050275;28;20045;-78
2023/05/29 07:12:51;;;;;;;11.52;2.88;;;;;;;15.13;50.29;100698.72;5051645;28;20106;-78
2023/05/29 07:15:18;;;;;;;17.10;3.28;;;;;;;15.17;49.99;100705.53;5051427;28;20057;-78
2023/05/29 07:17:45;;;;;;;13.90;3.45;;;;;;;15.22;49.93;100700.78;5051488;28;20064;-77
2023/05/29 07:20:12;;;;;;;10.60;3.05;;;;;;;15.28;49.68;100706.69;5051243;28;20056;-78
2023/05/29 07:22:38;;;;;;;12.50;3.03;;;;;;;15.29;49.83;100703.91;5051628;28;20056;-78
2023/05/29 07:25:06;;;;;;;15.55;2.97;;;;;;;15.32;49.67;100702.88;5050804;28;20100;-78
2023/05/29 07:27:35;;;;;;;11.45;2.85;;;;;;;15.35;49.77;100702.69;5049918;28;20128;-78
2023/05/29 07:30:02;;;;;;;12.23;3.03;;;;;;;15.38;49.77;100699.84;5031510;28;20053;-79
2023/05/29 07:32:29;;;;;;;12.98;3.20;;;;;;;15.42;49.75;100703.16;5042275;28;20522;-78
2023/05/29 07:34:55;;;;;;;14.77;3.00;;;;;;;15.47;49.79;100706.38;5049851;28;20048;-78
2023/05/29 07:37:22;;;;;;;15.07;2.67;;;;;;;15.52;49.63;100700.78;5051329;28;20153;-78
2023/05/29 07:39:49;;;;;;;13.90;3.00;;;;;;;15.57;49.82;100714.63;5051184;28;20053;-78
2023/05/29 07:42:16;;;;;;;15.20;3.70;;;;;;;15.64;49.65;100713.28;5029943;28;20060;-78
2023/05/29 07:44:42;;;;;;;15.60;3.42;;;;;;;15.71;49.75;100719.94;5030821;28;20471;-79
2023/05/29 07:47:09;;;;;;;17.30;2.83;;;;;;;15.79;49.60;100722.09;5030782;28;20053;-78
2023/05/29 07:49:36;;;;;;;15.25;3.42;;;;;;;15.88;49.51;100731.25;5044351;28;20049;-78
2023/05/29 07:52:03;;;;;;;15.70;2.63;;;;;;;15.95;49.32;100727.28;5070615;28;20495;-78
2023/05/29 07:54:32;;;;;;;10.27;2.67;;;;;;;16.02;49.05;100733.06;5071131;28;20052;-78
2023/05/29 07:57:00;;;;;;;13.98;2.97;;;;;;;16.10;49.18;100730.75;5071052;28;20044;-79
2023/05/29 07:59:26;;;;;;;11.55;2.78;;;;;;;16.18;49.23;100726.78;5062753;28;20057;-79
2023/05/29 08:01:53;;;;;;;11.75;2.92;;;;;;;16.26;49.27;100724.47;5049459;28;20057;-79
2023/05/29 08:04:20;;;;;;;13.55;3.20;;;;;;;16.36;48.98;100724.69;5049275;28;20057;-79
2023/05/29 08:06:46;;;;;;;13.80;3.15;;;;;;;16.47;48.69;100726.63;5050195;28;20517;-79
2023/05/29 08:09:14;;;;;;;11.55;3.25;;;;;;;16.57;48.84;100718.91;5050483;28;20053;-79
2023/05/29 08:11:40;;;;;;;13.23;3.00;;;;;;;16.66;48.61;100734.22;5050500;28;20060;-79
2023/05/29 08:14:07;;;;;;;14.85;3.33;;;;;;;16.74;48.59;100737.22;5049428;28;20049;-78
2023/05/29 08:16:34;;;;;;;10.02;3.28;;;;;;;16.84;48.55;100740.13;5050498;28;20041;-79
2023/05/29 08:19:01;;;;;;;12.55;3.30;;;;;;;16.93;48.44;100742.16;5050825;28;20429;-78
2023/05/29 08:21:28;;;;;;;14.50;3.55;;;;;;;17.02;48.25;100754.00;5050655;28;20059;-79
2023/05/29 08:23:55;;;;;;;12.60;2.85;;;;;;;17.11;48.00;100738.34;5050449;28;20495;-80
2023/05/29 08:26:21;;;;;;;13.88;3.13;;;;;;;17.18;48.32;100739.66;5050673;28;20063;-78
2023/05/29 08:28:48;;;;;;;16.15;3.28;;;;;;;17.26;47.88;100739.97;5050234;28;20487;-79
2023/05/29 08:31:15;;;;;;;16.45;3.38;;;;;;;17.35;47.82;100735.81;5050358;28;20052;-78
2023/05/29 08:33:42;;;;;;;13.75;3.80;;;;;;;17.43;47.81;100729.94;5053723;28;20084;-79
2023/05/29 08:36:08;;;;;;;11.50;3.58;;;;;;;17.52;47.65;100731.09;5053505;28;20060;-79
2023/05/29 08:38:35;;;;;;;13.73;2.90;;;;;;;17.59;47.49;100735.03;5054744;28;20386;-79
2023/05/29 08:41:02;;;;;;;14.02;3.17;;;;;;;17.65;47.90;100737.25;5054432;28;20052;-79
2023/05/29 08:43:31;;;;;;;10.52;3.20;;;;;;;17.71;47.81;100728.84;5054559;28;20052;-79
2023/05/29 08:46:03;;;;;;;14.48;3.45;;;;;;;17.79;47.09;100732.78;5054433;28;20094;-79
2023/05/29 08:48:30;;;;;;;16.15;3.53;;;;;;;17.88;47.34;100729.44;5053189;28;20045;-78
2023/05/29 08:53:59;;;;;;;9.88;2.65;;;;;;;18.06;47.18;100729.88;5022974;22;20575;-78
2023/05/29 08:56:27;;;;;;;10.85;3.05;;;;;;;18.15;46.95;100740.88;5052162;28;20053;-77
2023/05/29 08:59:02;;;;;;;13.48;3.17;;;;;;;18.23;47.38;100733.16;5053220;28;20052;-79
2023/05/29 09:01:35;;;;;;;12.27;3.40;;;;;;;18.33;47.41;100744.88;5052641;28;20045;-77
2023/05/29 09:04:02;;;;;;;15.73;3.25;;;;;;;18.48;47.01;100742.00;5054096;28;20053;-80
2023/05/29 09:06:29;;;;;;;14.02;3.40;;;;;;;18.60;47.09;100745.56;5053766;28;20135;-78
2023/05/29 09:08:57;;;;;;;9.15;3.10;;;;;;;18.71;46.89;100744.75;5052693;28;20061;-79
2023/05/29 09:11:25;;;;;;;14.30;4.15;;;;;;;18.83;46.68;100743.81;5056434;28;20049;-77
2023/05/29 09:13:53;;;;;;;7.85;2.90;;;;;;;18.95;46.59;100747.34;5063169;28;20057;-77
2023/05/29 09:16:20;;;;;;;17.17;3.20;;;;;;;19.06;46.08;100749.22;5062049;28;20060;-76
2023/05/29 09:18:47;;;;;;;11.20;3.20;;;;;;;19.19;46.63;100753.63;5073038;28;20052;-77
2023/05/29 09:21:27;;;;;;;8.38;3.45;;;;;;;19.29;45.32;100751.09;5062553;28;20105;-76
2023/05/29 09:24:03;;;;;;;16.20;3.42;;;;;;;19.39;45.91;100752.06;5052020;28;20060;-77
2023/05/29 09:26:30;;;;;;;12.65;3.92;;;;;;;19.52;46.01;100751.94;5052057;28;20049;-77
2023/05/29 09:28:57;;;;;;;14.35;2.72;;;;;;;19.61;45.22;100745.00;5052059;28;20052;-78
2023/05/29 09:31:24;;;;;;;10.00;2.90;;;;;;;19.70;45.12;100743.44;5052294;28;20060;-79
2023/05/29 09:33:51;;;;;;;12.18;2.70;;;;;;;19.74;45.35;100737.72;5051888;28;20131;-77
2023/05/29 09:36:22;;;;;;;13.13;3.28;;;;;;;19.80;44.79;100736.38;5051875;28;20049;-78
2023/05/29 09:38:50;;;;;;;10.05;3.03;;;;;;;19.90;44.73;100740.03;5053558;28;20085;-79
2023/05/29 09:41:25;;;;;;;11.73;3.15;;;;;;;19.99;44.71;100735.78;5052321;28;20478;-78
2023/05/29 09:43:54;;;;;;;12.15;3.25;;;;;;;20.07;44.62;100745.00;5051831;28;20060;-77
2023/05/29 09:46:20;;;;;;;11.65;2.72;;;;;;;20.15;44.69;100746.03;5053291;28;20504;-78
2023/05/29 09:48:48;;;;;;;15.23;3.45;;;;;;;20.23;44.65;100750.78;5051748;28;20072;-77
2023/05/29 09:51:22;;;;;;;14.45;3.42;;;;;;;20.30;44.19;100743.94;5053311;28;20102;-78
2023/05/29 09:53:50;;;;;;;11.18;3.17;;;;;;;20.43;44.42;100742.91;5052475;28;20057;-78
2023/05/29 09:56:17;;;;;;;15.73;3.50;;;;;;;20.51;44.43;100740.47;5051958;28;20544;-78
2023/05/29 09:58:46;;;;;;;12.65;3.42;;;;;;;20.61;43.95;100737.88;5051600;28;20065;-78
2023/05/29 10:01:16;;;;;;;13.68;3.58;;;;;;;20.69;43.51;100726.50;5051631;28;20410;-78
2023/05/29 10:03:43;;;;;;;8.93;2.83;;;;;;;20.81;43.67;100740.66;5051710;28;20060;-78
2023/05/29 10:06:13;;;;;;;11.00;2.95;;;;;;;20.90;43.74;100737.22;5051480;28;20061;-78
2023/05/29 10:08:48;;;;;;;10.38;2.95;;;;;;;20.99;42.94;100732.94;5052752;28;20061;-78
2023/05/29 10:11:24;;;;;;;12.27;3.35;;;;;;;21.11;42.84;100732.88;5051683;28;20064;-79
2023/05/29 10:13:52;;;;;;;11.90;3.05;;;;;;;21.22;43.21;100735.44;5052273;28;20091;-77
2023/05/29 10:16:22;;;;;;;12.65;3.60;;;;;;;21.30;42.66;100735.63;5051357;28;20593;-78
2023/05/29 10:18:56;;;;;;;11.73;2.72;;;;;;;21.38;42.38;100739.47;5052592;28;20049;-79
2023/05/29 10:21:27;;;;;;;11.18;2.97;;;;;;;21.46;41.98;100735.13;5051400;28;20060;-78
2023/05/29 10:23:56;;;;;;;13.77;3.53;;;;;;;21.57;41.78;100738.72;5052595;28;20053;-78
2023/05/29 10:26:26;;;;;;;9.95;2.67;;;;;;;21.63;42.13;100738.16;5052413;28;20056;-77
2023/05/29 10:29:24;;;;;;;10.63;2.97;;;;;;;21.68;41.72;100737.75;5052491;28;20048;-78
2023/05/29 10:32:20;;;;;;;10.98;3.55;;;;;;;21.77;41.99;100728.94;5051245;28;20045;-78
2023/05/29 10:35:02;;;;;;;11.05;3.08;;;;;;;21.89;41.76;100732.34;5050859;28;20165;-77
2023/05/29 10:37:57;;;;;;;8.45;3.13;;;;;;;22.02;42.18;100729.41;5052250;28;20057;-77
2023/05/29 10:40:25;;;;;;;11.18;3.38;;;;;;;22.26;42.50;100728.16;5048950;28;20065;-77
2023/05/29 10:42:57;;;;;;;8.32;2.95;;;;;;;22.48;42.15;100724.34;5051842;28;20052;-78
2023/05/29 10:45:35;;;;;;;10.73;2.63;;;;;;;22.74;41.77;100720.25;5047677;28;20056;-77
2023/05/29 10:48:11;;;;;;;10.93;3.33;;;;;;;23.08;41.36;100713.53;5050008;28;20300;-78
2023/05/29 10:50:38;;;;;;;11.52;3.45;;;;;;;23.44;41.13;100724.47;5050336;28;20053;-77
2023/05/29 10:53:25;;;;;;;10.05;3.17;;;;;;;23.79;40.12;100720.16;5050170;28;20056;-77
2023/05/29 10:55:53;;;;;;;10.70;3.15;;;;;;;24.22;40.28;100721.47;5049379;28;20404;-78
2023/05/29 10:58:25;;;;;;;8.77;2.50;;;;;;;24.57;40.17;100728.69;5051706;28;20063;-78
2023/05/29 11:00:56;;;;;;;8.17;2.73;;;;;;;24.95;40.58;100715.00;5051670;28;20056;-79
2023/05/29 11:03:34;;;;;;;12.80;3.28;;;;;;;25.28;38.71;100700.84;5050602;28;20056;-80
2023/05/29 11:06:07;;;;;;;7.20;3.08;;;;;;;25.57;37.37;100702.34;5049686;28;20103;-78
2023/05/29 11:08:52;;;;;;;10.40;3.03;;;;;;;25.81;37.62;100710.66;5051440;28;20049;-78
2023/05/29 11:11:28;;;;;;;7.60;2.58;;;;;;;26.03;38.00;100706.50;5050230;28;20056;-79
2023/05/29 11:13:56;;;;;;;12.57;3.80;;;;;;;26.26;37.16;100706.72;5051248;28;20045;-78
2023/05/29 11:16:28;;;;;;;8.82;3.45;;;;;;;26.45;36.68;100714.66;5051351;28;20076;-78
2023/05/29 11:18:57;;;;;;;10.35;2.88;;;;;;;26.65;36.21;100707.88;5051244;28;20060;-78
2023/05/29 11:21:52;;;;;;;8.15;2.75;;;;;;;26.86;35.46;100697.56;5050173;28;20084;-78
2023/05/29 11:24:25;;;;;;;7.75;2.70;;;;;;;27.11;36.66;100695.69;5050488;28;20053;-78
2023/05/29 11:26:58;;;;;;;5.78;2.75;;;;;;;27.36;35.67;100692.84;5049702;28;20130;-78